»·PEaware :: LXJ223 KRNO-KEUG

LXJ223 :: KRNO-KEUG

FLIGHT INFORMATION

Flight Status: Arrived
Operator: Unknown
More flights by this operator :: More flights under this callsign
Pilot: Anonymous 5456 (5456)
Aircraft: BOMBARDIER BD-100 CHALLENGER 300
(CL30)
More flights by this aircraft type
Origin: KRNO Reno/Tahoe Intl
United States
Destination: KEUG Mahlon Sweet
United States
More flights between these airports :: More routes between these airports
Route: +ZEFFR6 ZEFFR FITUN V452 JUXIB
File this flight plan on PilotEdge
Remarks:
Altitude:
(Current/Filed)
34,000ft
Speed:
(Current/Filed)
450kts
Departed: 28-Oct-17 10:48 AM
Arrived: 28-Oct-17 11:46 AM
Distance/Time
Traveled:
317nm/0:58
Distance/Time
To Go:
Arrived

Flight Plot

Page will automatically refresh every two minutes.

Flight plan parsing failed; only flown route is shown


Map Options




Map Legend


Flown Route
Filed Route
Departure Airport
Arrival Airport
Navaid (VOR, NDB)
Fix

Horizontal Profiles

Position Reports

Time Latitude Longitude Heading Altitude Ground
Speed
28-Oct-17 10:26 39.502081 -119.765195 180 4422ft 0kts
28-Oct-17 10:27 39.502081 -119.765195 180 4422ft 0kts
28-Oct-17 10:28 39.502081 -119.765195 180 4422ft 0kts
28-Oct-17 10:29 39.502081 -119.765195 180 4422ft 0kts
28-Oct-17 10:31 39.502081 -119.765195 180 4422ft 0kts
28-Oct-17 10:39 39.502076 -119.765196 180 4422ft 0kts
28-Oct-17 10:40 39.502076 -119.765196 180 4422ft 0kts
28-Oct-17 10:41 39.502076 -119.765196 180 4422ft 0kts
28-Oct-17 10:42 39.502076 -119.765196 180 4422ft 0kts
28-Oct-17 10:43 39.502076 -119.765196 180 4422ft 0kts
28-Oct-17 10:44 39.502076 -119.765196 180 4422ft 0kts
28-Oct-17 10:45 39.502076 -119.765196 180 4422ft 0kts
28-Oct-17 10:46 39.502076 -119.765196 180 4422ft 0kts
28-Oct-17 10:47 39.502076 -119.765196 179 4422ft 0kts
28-Oct-17 10:48 39.502076 -119.765196 180 4422ft 0kts
28-Oct-17 10:49 39.501961 -119.765196 180 4422ft 3kts
28-Oct-17 10:50 39.502404 -119.765826 359 4422ft 19kts
28-Oct-17 10:51 39.508305 -119.765803 359 4422ft 20kts
28-Oct-17 10:52 39.513099 -119.765107 357 4421ft 18kts
28-Oct-17 10:53 39.502493 -119.766748 179 4456ft 156kts
28-Oct-17 10:54 39.449750 -119.768520 181 7157ft 212kts
28-Oct-17 10:55 39.390358 -119.769466 179 10152ft 219kts
28-Oct-17 10:56 39.337337 -119.769108 169 12909ft 239kts
28-Oct-17 10:57 39.289305 -119.690180 118 16632ft 264kts
28-Oct-17 10:58 39.310465 -119.599344 60 19248ft 331kts
28-Oct-17 10:59 39.375486 -119.486806 46 19247ft 429kts
28-Oct-17 11:00 39.449437 -119.405229 22 19211ft 433kts
28-Oct-17 11:01 39.567013 -119.466351 312 21340ft 421kts
28-Oct-17 11:02 39.631103 -119.560651 306 24518ft 425kts
28-Oct-17 11:03 39.703486 -119.679086 305 28126ft 423kts
28-Oct-17 11:04 39.774401 -119.798938 304 31478ft 418kts
28-Oct-17 11:05 39.857099 -119.901079 327 34253ft 425kts
28-Oct-17 11:06 39.959805 -119.981311 328 34284ft 489kts
28-Oct-17 11:07 40.081396 -120.074899 328 34267ft 514kts
28-Oct-17 11:08 40.199974 -120.166273 328 34258ft 500kts
28-Oct-17 11:09 40.318416 -120.257971 329 34262ft 490kts
28-Oct-17 11:10 40.433824 -120.347523 329 34262ft 481kts
28-Oct-17 11:11 40.547924 -120.436465 329 34264ft 475kts
28-Oct-17 11:12 40.659498 -120.523732 328 34258ft 471kts
28-Oct-17 11:13 40.771716 -120.611999 329 34268ft 475kts
28-Oct-17 11:14 40.884497 -120.700960 328 34241ft 484kts
28-Oct-17 11:15 41.000620 -120.792949 328 34240ft 491kts
28-Oct-17 11:16 41.114024 -120.883153 328 34238ft 495kts
28-Oct-17 11:17 41.230616 -120.976279 328 34235ft 492kts
28-Oct-17 11:18 41.346821 -121.069498 328 34236ft 488kts
28-Oct-17 11:19 41.457388 -121.158584 328 34237ft 485kts
28-Oct-17 11:20 41.571079 -121.250486 327 34211ft 483kts
28-Oct-17 11:21 41.685181 -121.343249 327 34210ft 481kts
28-Oct-17 11:22 41.798472 -121.435689 327 34211ft 479kts
28-Oct-17 11:23 41.911603 -121.528371 327 34211ft 478kts
28-Oct-17 11:24 42.023995 -121.620819 327 34212ft 477kts
28-Oct-17 11:25 42.134713 -121.712256 327 34209ft 477kts
28-Oct-17 11:26 42.248898 -121.797787 330 34209ft 476kts
28-Oct-17 11:27 42.364578 -121.882966 330 34210ft 475kts
28-Oct-17 11:28 42.481332 -121.969329 330 32410ft 487kts
28-Oct-17 11:29 42.598975 -122.056702 330 30422ft 484kts
28-Oct-17 11:30 42.715720 -122.143769 329 28445ft 482kts
28-Oct-17 11:31 42.830913 -122.230096 329 26462ft 469kts
28-Oct-17 11:32 42.940146 -122.312310 330 24467ft 443kts
28-Oct-17 11:33 43.045630 -122.391998 330 24075ft 437kts
28-Oct-17 11:34 43.147519 -122.469270 330 23151ft 444kts
28-Oct-17 11:35 43.251000 -122.548068 330 20747ft 419kts
28-Oct-17 11:36 43.349775 -122.623587 331 18342ft 399kts
28-Oct-17 11:37 43.442590 -122.694726 330 16039ft 394kts
28-Oct-17 11:38 43.535953 -122.766567 330 13650ft 380kts
28-Oct-17 11:39 43.624988 -122.835350 330 11270ft 362kts
28-Oct-17 11:40 43.708003 -122.899700 330 9971ft 313kts
28-Oct-17 11:41 43.778574 -122.954619 330 8489ft 284kts
28-Oct-17 11:42 43.844752 -123.006168 330 6391ft 266kts
28-Oct-17 11:43 43.907522 -123.055201 330 4989ft 258kts
28-Oct-17 11:44 43.974882 -123.081049 354 4981ft 252kts
28-Oct-17 11:45 44.040495 -123.089698 354 4042ft 222kts
28-Oct-17 11:46 44.098575 -123.097342 354 3970ft 192kts
28-Oct-17 11:47 44.146839 -123.103684 354 3102ft 182kts
28-Oct-17 11:48 44.182956 -123.127732 271 2463ft 148kts
28-Oct-17 11:49 44.183189 -123.193875 267 1899ft 169kts
28-Oct-17 11:50 44.153307 -123.219408 181 808ft 143kts
28-Oct-17 11:51 44.122041 -123.218911 180 380ft 38kts
28-Oct-17 11:52 44.120927 -123.217522 89 381ft 0kts
28-Oct-17 11:53 44.120967 -123.214457 88 381ft 11kts
28-Oct-17 11:54 44.121611 -123.212879 210 381ft 0kts
28-Oct-17 11:55 44.121611 -123.212879 210 381ft 0kts
28-Oct-17 11:56 44.121611 -123.212879 210 381ft 0kts
28-Oct-17 11:57 44.121611 -123.212879 210 381ft 0kts
28-Oct-17 11:58 44.121611 -123.212879 210 381ft 0kts
28-Oct-17 11:59 44.121611 -123.212879 210 381ft 0kts
28-Oct-17 12:00 44.121611 -123.212879 210 381ft 0kts
28-Oct-17 12:01 44.121611 -123.212879 210 381ft 0kts
28-Oct-17 12:02 44.121611 -123.212879 210 381ft 0kts
28-Oct-17 12:03 44.121611 -123.212879 210 381ft 0kts
28-Oct-17 12:04 44.121611 -123.212879 210 381ft 0kts
28-Oct-17 12:05 44.121611 -123.212879 210 381ft 0kts
28-Oct-17 12:06 44.121611 -123.212879 210 381ft 0kts

Navigation Log

Ident Type
Flight plan parsing failed, navigation log unavailable